Hostname: pi-star
Pi-Star:3.4.17 / Dashboard: 20200221

Pi-Star Digital Voice Dashboard for MW0MWZ

Dashboard | Admin | Configuration



DAPNET Gateway Activity
Time (GMT)Time in GMT time zone Time SlotMessage Mode TargetRIC / CapCode of the receiving Pager MessageMessage contents
00:38:00 Mar 29th Slot 12 0002504 [Skyper OTA Time] 003800 290320
00:35:50 Mar 29th Slot 8 0004520 [Skyper Rubric:60 Msg:1] DXCluster bei DB0SDAges:200 KW:186 KWCW:2 4/6m:0 V/UHF:0 SHF:0
00:35:50 Mar 29th Slot 8 0001060 DXCluster bei DB0SDAges:200 KW:186 KWCW:2 4/6m:0 V/UHF:0 SHF:0
00:34:08 Mar 29th Slot 8 0002504 [Skyper OTA Time] 003400 290320
00:32:51 Mar 29th Slot 12 0083490 PT2EBR: QRA Tiago - QTH Pago dArcos, Portugal-
00:32:00 Mar 29th Slot 4 0002504 [Skyper OTA Time] 003200 290320
00:31:08 Mar 29th Slot 12 0083490 PT2EBR: Sent using pyPager by PT2EBR - IG: @tiuksferve
00:30:17 Mar 29th Slot 4 0004520 [Skyper Rubric:60 Msg:2] DAPNET-Core Stats PrivMsgs:81 News:628Nodes:6/11 TXs:560/1840
00:30:17 Mar 29th Slot 4 0001060 DAPNET-Core Stats PrivMsgs:81 News:628Nodes:6/11 TXs:560/1840
00:30:17 Mar 29th Slot 4 0000008 mw0mwz
00:29:26 Mar 29th Slot 12 0083490 PT2EBR: teste
00:28:09 Mar 29th Slot 0 0002504 [Skyper OTA Time] 002800 290320
00:26:01 Mar 29th Slot 12 0002504 [Skyper OTA Time] 002600 290320
00:22:11 Mar 29th Slot 8 0002504 [Skyper OTA Time] 002200 290320
00:21:20 Mar 29th Slot 0 0351172 M0GLJ: LBBG 290000Z 26005KT CAVOK 10/04 Q1008 NOSIG
00:21:20 Mar 29th Slot 0 0351172 M0GLJ: EGNX 282350Z 02011KT 350V050 9999 SCT017 03/M01 Q1038
00:20:03 Mar 29th Slot 4 0000008 mw0mwz
00:20:03 Mar 29th Slot 4 0002504 [Skyper OTA Time] 002000 290320
00:18:00 Mar 29th Slot 0 0002504 [Skyper OTA Time] 001800 290320
00:16:38 Mar 29th Slot 4 0083490 Testing 1, 2, 3...